createdAt,value
2018-10-04T00:01:42.393Z,100630.32
2018-10-04T00:04:09.935Z,100631.00
2018-10-04T00:06:37.499Z,100627.70
2018-10-04T00:09:05.067Z,100622.77
2018-10-04T00:11:33.608Z,100624.05
2018-10-04T00:14:01.425Z,100620.66
2018-10-04T00:16:29.156Z,100626.02
2018-10-04T00:18:56.726Z,100625.18
2018-10-04T00:21:24.273Z,100629.43
2018-10-04T00:23:51.845Z,100632.30
2018-10-04T00:26:19.377Z,100633.89
2018-10-04T00:28:47.023Z,100631.19
2018-10-04T00:31:14.757Z,100624.38
2018-10-04T00:33:42.329Z,100616.66
2018-10-04T00:36:09.867Z,100614.15
2018-10-04T00:38:37.458Z,100612.02
2018-10-04T00:41:05.028Z,100619.66
2018-10-04T00:43:32.579Z,100613.73
2018-10-04T00:46:00.308Z,100606.14
2018-10-04T00:48:27.699Z,100604.78
2018-10-04T00:50:55.398Z,100601.25
2018-10-04T00:53:22.985Z,100600.05
2018-10-04T00:55:50.613Z,100596.78
2018-10-04T00:58:18.429Z,100593.33
2018-10-04T01:00:46.200Z,100593.05
2018-10-04T01:03:13.903Z,100596.05
2018-10-04T01:05:41.477Z,100594.75
2018-10-04T01:08:09.069Z,100586.45
2018-10-04T01:10:36.640Z,100587.59
2018-10-04T01:13:04.174Z,100591.31
2018-10-04T01:15:32.483Z,100588.41
2018-10-04T01:18:00.220Z,100590.14
2018-10-04T01:20:27.785Z,100603.31
2018-10-04T01:22:55.443Z,100587.62
2018-10-04T01:25:23.154Z,100591.09
2018-10-04T01:27:50.681Z,100592.95
2018-10-04T01:30:18.270Z,100587.55
2018-10-04T01:32:45.811Z,100583.94
2018-10-04T01:35:13.398Z,100574.39
2018-10-04T01:37:41.111Z,100574.55
2018-10-04T01:40:08.647Z,100578.69
2018-10-04T01:42:36.622Z,100573.78
2018-10-04T01:45:04.179Z,100573.37
2018-10-04T01:47:31.890Z,100576.31
2018-10-04T01:49:59.458Z,100572.77
2018-10-04T01:52:27.056Z,100577.02
2018-10-04T01:54:55.072Z,100569.84
2018-10-04T01:57:22.695Z,100577.08
2018-10-04T01:59:50.243Z,100577.15
2018-10-04T02:02:17.814Z,100578.25
2018-10-04T02:04:45.331Z,100577.44
2018-10-04T02:07:12.912Z,100570.34
2018-10-04T02:09:40.430Z,100579.04
2018-10-04T02:12:08.090Z,100577.39
2018-10-04T02:14:35.538Z,100576.55
2018-10-04T02:17:03.127Z,100578.25
2018-10-04T02:19:30.652Z,100573.11
2018-10-04T02:21:58.239Z,100572.42
2018-10-04T02:24:25.784Z,100581.59
2018-10-04T02:26:53.396Z,100577.87
2018-10-04T02:29:20.920Z,100576.48
2018-10-04T02:31:48.474Z,100580.02
2018-10-04T02:34:16.052Z,100573.94
2018-10-04T02:36:43.798Z,100579.08
2018-10-04T02:39:11.357Z,100575.80
2018-10-04T02:41:39.068Z,100573.38
2018-10-04T02:44:06.608Z,100574.84
2018-10-04T02:46:34.137Z,100576.17
2018-10-04T02:49:01.703Z,100569.22
2018-10-04T02:51:29.243Z,100566.95
2018-10-04T02:53:56.814Z,100569.89
2018-10-04T02:56:39.281Z,100564.03
2018-10-04T02:59:06.807Z,100560.92
2018-10-04T03:01:40.952Z,100557.75
2018-10-04T03:04:08.558Z,100560.33
2018-10-04T03:06:36.089Z,100552.13
2018-10-04T03:09:03.679Z,100560.12
2018-10-04T03:11:31.227Z,100559.64
2018-10-04T03:13:58.879Z,100554.91
2018-10-04T03:16:26.486Z,100550.27
2018-10-04T03:18:54.042Z,100553.58
2018-10-04T03:21:21.593Z,100547.93
2018-10-04T03:23:49.156Z,100542.23
2018-10-04T03:26:16.692Z,100547.12
2018-10-04T03:28:44.281Z,100538.05
2018-10-04T03:31:11.873Z,100543.06
2018-10-04T03:33:39.413Z,100543.65
2018-10-04T03:36:06.996Z,100539.61
2018-10-04T03:38:34.540Z,100541.38
2018-10-04T03:41:02.113Z,100537.91
2018-10-04T03:43:29.773Z,100538.64
2018-10-04T03:45:57.316Z,100541.80
2018-10-04T03:48:25.013Z,100537.75
2018-10-04T03:50:52.546Z,100532.52
2018-10-04T03:53:20.279Z,100523.11
2018-10-04T03:55:47.830Z,100526.35
2018-10-04T03:58:15.351Z,100531.63
2018-10-04T04:00:42.924Z,100535.93
2018-10-04T04:03:10.703Z,100532.95
2018-10-04T04:05:38.272Z,100528.16
2018-10-04T04:08:05.865Z,100531.87
2018-10-04T04:10:33.449Z,100522.23
2018-10-04T04:13:00.985Z,100521.06
2018-10-04T04:15:28.584Z,100527.67
2018-10-04T04:17:56.099Z,100520.49
2018-10-04T04:20:23.695Z,100520.89
2018-10-04T04:22:51.246Z,100522.94
2018-10-04T04:25:18.892Z,100522.30
2018-10-04T04:27:46.373Z,100517.74
2018-10-04T04:30:13.983Z,100525.23
2018-10-04T04:32:41.513Z,100521.95
2018-10-04T04:35:09.068Z,100517.34
2018-10-04T04:37:36.626Z,100519.47
2018-10-04T04:40:04.143Z,100521.17
2018-10-04T04:42:31.693Z,100517.44
2018-10-04T04:44:59.315Z,100527.15
2018-10-04T04:47:26.877Z,100535.34
2018-10-04T04:49:54.404Z,100529.91
2018-10-04T04:52:21.987Z,100530.87
2018-10-04T04:54:49.499Z,100541.51
2018-10-04T04:57:17.173Z,100534.50
2018-10-04T04:59:44.686Z,100530.66
2018-10-04T05:02:12.225Z,100538.66
2018-10-04T05:04:39.945Z,100543.73
2018-10-04T05:07:07.495Z,100543.77
2018-10-04T05:09:35.010Z,100539.02
2018-10-04T05:12:02.613Z,100544.44
2018-10-04T05:14:30.171Z,100545.90
2018-10-04T05:16:57.803Z,100545.06
2018-10-04T05:19:25.402Z,100544.50
2018-10-04T05:21:53.142Z,100546.48
2018-10-04T05:24:21.484Z,100545.64
2018-10-04T05:26:49.056Z,100548.37
2018-10-04T05:29:16.575Z,100547.68
2018-10-04T05:31:44.133Z,100546.29
2018-10-04T05:34:11.719Z,100547.99
2018-10-04T05:36:39.278Z,100549.92
2018-10-04T05:39:06.819Z,100543.28
2018-10-04T05:41:34.575Z,100544.45
2018-10-04T05:44:02.149Z,100549.26
2018-10-04T05:46:29.822Z,100547.19
2018-10-04T05:48:57.650Z,100540.44
2018-10-04T05:51:25.559Z,100548.67
2018-10-04T05:53:53.198Z,100543.08
2018-10-04T05:56:21.600Z,100544.55
2018-10-04T05:58:49.208Z,100545.95
2018-10-04T06:01:16.760Z,100548.67
2018-10-04T06:03:44.279Z,100546.17
2018-10-04T06:06:11.835Z,100546.66
2018-10-04T06:08:39.349Z,100547.81
2018-10-04T06:11:06.940Z,100547.61
2018-10-04T06:13:34.468Z,100546.21
2018-10-04T06:16:02.058Z,100552.97
2018-10-04T06:18:29.590Z,100551.59
2018-10-04T06:20:57.322Z,100550.16
2018-10-04T06:23:24.875Z,100555.47
2018-10-04T06:25:52.469Z,100550.20
2018-10-04T06:28:20.042Z,100551.70
2018-10-04T06:30:47.641Z,100552.78
2018-10-04T06:33:17.364Z,100551.08
2018-10-04T06:35:45.129Z,100551.97
2018-10-04T06:38:12.675Z,100557.78
2018-10-04T06:40:40.329Z,100553.38
2018-10-04T06:43:07.917Z,100557.80
2018-10-04T06:45:35.491Z,100559.49
2018-10-04T06:48:03.168Z,100558.99
2018-10-04T06:50:30.682Z,100562.42
2018-10-04T06:52:58.303Z,100556.72
2018-10-04T06:55:25.905Z,100561.27
2018-10-04T06:57:53.519Z,100560.07
2018-10-04T07:00:21.129Z,100554.41
2018-10-04T07:02:48.649Z,100550.77
2018-10-04T07:05:16.219Z,100560.13
2018-10-04T07:07:43.800Z,100564.45
2018-10-04T07:10:11.445Z,100564.07
2018-10-04T07:12:38.933Z,100565.06
2018-10-04T07:15:06.680Z,100567.94
2018-10-04T07:17:34.340Z,100568.97
2018-10-04T07:20:01.875Z,100565.47
2018-10-04T07:22:29.469Z,100567.91
2018-10-04T07:24:57.154Z,100570.05
2018-10-04T07:27:24.848Z,100571.94
2018-10-04T07:29:53.533Z,100574.33
2018-10-04T07:32:22.128Z,100577.55
2018-10-04T07:34:50.942Z,100576.31
2018-10-04T07:37:18.801Z,100576.78
2018-10-04T07:39:46.256Z,100576.75
2018-10-04T07:42:13.921Z,100585.95
2018-10-04T07:44:42.581Z,100586.86
2018-10-04T07:47:10.217Z,100586.09
2018-10-04T07:49:37.796Z,100585.31
2018-10-04T07:52:05.684Z,100582.02
2018-10-04T07:54:33.298Z,100590.43
2018-10-04T07:57:00.849Z,100598.88
2018-10-04T07:59:28.478Z,100596.14
2018-10-04T08:01:56.165Z,100599.94
2018-10-04T08:04:23.805Z,100610.78
2018-10-04T08:06:51.622Z,100608.25
2018-10-04T08:09:19.357Z,100610.45
2018-10-04T08:11:47.100Z,100612.12
2018-10-04T08:14:14.639Z,100616.03
2018-10-04T08:16:42.212Z,100608.52
2018-10-04T08:19:09.725Z,100613.06
2018-10-04T08:21:37.278Z,100611.96
2018-10-04T08:24:04.981Z,100614.36
2018-10-04T08:26:32.568Z,100616.72
2018-10-04T08:29:00.426Z,100621.27
2018-10-04T08:31:28.069Z,100623.78
2018-10-04T08:33:55.803Z,100623.59
2018-10-04T08:36:23.348Z,100632.63
2018-10-04T08:38:50.974Z,100631.13
2018-10-04T08:41:18.747Z,100636.25
2018-10-04T08:43:46.327Z,100630.97
2018-10-04T08:46:13.983Z,100634.89
2018-10-04T08:48:41.548Z,100631.70
2018-10-04T08:51:09.135Z,100632.28
2018-10-04T08:53:36.670Z,100634.03
2018-10-04T08:56:04.308Z,100632.65
2018-10-04T08:58:31.842Z,100635.73
2018-10-04T09:00:59.381Z,100628.84
2018-10-04T09:03:26.960Z,100630.56
2018-10-04T09:05:54.488Z,100625.80
2018-10-04T09:08:22.069Z,100630.42
2018-10-04T09:10:49.811Z,100619.79
2018-10-04T09:13:17.441Z,100630.73
2018-10-04T09:15:44.997Z,100628.06
2018-10-04T09:18:12.585Z,100622.45
2018-10-04T09:20:40.099Z,100631.00
2018-10-04T09:23:07.691Z,100631.80
2018-10-04T09:25:35.453Z,100626.39
2018-10-04T09:28:03.064Z,100632.14
2018-10-04T09:30:30.618Z,100633.05
2018-10-04T09:32:58.207Z,100631.83
2018-10-04T09:35:25.794Z,100630.24
2018-10-04T09:37:53.351Z,100629.13
2018-10-04T09:40:21.085Z,100627.37
2018-10-04T09:42:48.709Z,100633.05
2018-10-04T09:45:16.326Z,100625.30
2018-10-04T09:47:43.854Z,100631.94
2018-10-04T09:50:11.630Z,100622.33
2018-10-04T09:52:39.333Z,100624.04
2018-10-04T09:55:07.243Z,100624.64
2018-10-04T09:57:34.846Z,100627.13
2018-10-04T10:00:02.440Z,100628.38
2018-10-04T10:02:30.017Z,100621.72
2018-10-04T10:04:57.566Z,100616.45
2018-10-04T10:07:25.319Z,100618.98
2018-10-04T10:09:52.869Z,100621.44
2018-10-04T10:12:21.195Z,100632.25
2018-10-04T10:14:48.773Z,100623.52
2018-10-04T10:17:16.375Z,100617.71
2018-10-04T10:19:43.952Z,100617.92
2018-10-04T10:22:11.522Z,100613.70
2018-10-04T10:24:39.061Z,100613.41
2018-10-04T10:27:06.652Z,100612.20
2018-10-04T10:29:34.206Z,100617.94
2018-10-04T10:32:01.792Z,100616.16
2018-10-04T10:34:29.925Z,100610.49
2018-10-04T10:36:58.216Z,100617.63
2018-10-04T10:39:27.174Z,100611.42
2018-10-04T10:41:55.405Z,100612.44
2018-10-04T10:44:23.381Z,100616.77
2018-10-04T10:46:51.140Z,100619.20
2018-10-04T10:49:18.775Z,100615.70
2018-10-04T10:51:46.461Z,100611.72
2018-10-04T10:54:14.238Z,100613.60
2018-10-04T10:56:41.926Z,100609.47
2018-10-04T10:59:09.916Z,100612.92
2018-10-04T11:01:37.603Z,100604.78
2018-10-04T11:04:05.289Z,100605.32
2018-10-04T11:06:32.902Z,100592.48
2018-10-04T11:09:00.607Z,100583.88
2018-10-04T11:11:28.475Z,100587.16
2018-10-04T11:13:56.068Z,100582.11
2018-10-04T11:16:23.992Z,100594.83
2018-10-04T11:18:52.469Z,100585.20
2018-10-04T11:21:20.086Z,100580.45
2018-10-04T11:23:47.748Z,100573.78
2018-10-04T11:26:15.483Z,100577.89
2018-10-04T11:28:43.373Z,100584.05
2018-10-04T11:31:11.033Z,100571.58
2018-10-04T11:33:39.278Z,100578.61
2018-10-04T11:36:07.431Z,100566.81
2018-10-04T11:38:35.093Z,100571.57
2018-10-04T11:41:03.088Z,100571.02
2018-10-04T11:43:39.640Z,100569.12
2018-10-04T11:46:07.537Z,100562.80
2018-10-04T11:48:35.442Z,100558.56
2018-10-04T11:51:03.201Z,100555.30
2018-10-04T11:53:30.911Z,100559.11
2018-10-04T11:55:58.666Z,100550.30
2018-10-04T11:58:26.950Z,100543.54
2018-10-04T12:00:54.641Z,100543.34
2018-10-04T12:03:22.326Z,100540.39
2018-10-04T12:05:49.999Z,100539.28
2018-10-04T12:08:17.677Z,100535.78
2018-10-04T12:10:45.319Z,100535.60
2018-10-04T12:13:13.277Z,100545.47
2018-10-04T12:15:40.866Z,100533.05
2018-10-04T12:18:08.751Z,100537.84
2018-10-04T12:20:36.504Z,100529.94
2018-10-04T12:23:04.097Z,100527.66
2018-10-04T12:25:31.778Z,100530.84
2018-10-04T12:27:59.430Z,100524.66
2018-10-04T12:30:27.564Z,100532.69
2018-10-04T12:32:55.263Z,100523.19
2018-10-04T12:35:23.143Z,100515.36
2018-10-04T12:37:50.847Z,100520.08
2018-10-04T12:40:18.602Z,100512.12
2018-10-04T12:42:46.409Z,100517.65
2018-10-04T12:45:14.149Z,100515.36
2018-10-04T12:47:41.792Z,100512.75
2018-10-04T12:50:09.470Z,100519.55
2018-10-04T12:52:37.297Z,100518.16
2018-10-04T12:55:04.934Z,100515.16
2018-10-04T12:57:32.535Z,100510.09
2018-10-04T13:00:00.238Z,100504.17
2018-10-04T13:02:27.928Z,100501.21
2018-10-04T13:04:55.707Z,100506.78
2018-10-04T13:07:23.500Z,100493.50
2018-10-04T13:09:51.182Z,100491.67
2018-10-04T13:12:19.002Z,100486.45
2018-10-04T13:14:47.158Z,100482.22
2018-10-04T13:17:14.834Z,100486.45
2018-10-04T13:19:42.508Z,100483.16
2018-10-04T13:22:10.279Z,100480.26
2018-10-04T13:24:37.968Z,100485.22
2018-10-04T13:27:05.728Z,100481.27
2018-10-04T13:29:33.456Z,100478.73
2018-10-04T13:32:01.071Z,100482.06
2018-10-04T13:34:28.903Z,100483.47
2018-10-04T13:36:56.533Z,100477.20
2018-10-04T13:39:24.210Z,100478.56
2018-10-04T13:41:51.920Z,100467.77
2018-10-04T13:44:19.536Z,100459.44
2018-10-04T13:46:47.223Z,100464.61
2018-10-04T13:49:14.851Z,100466.24
2018-10-04T13:51:42.746Z,100453.70
2018-10-04T13:54:10.366Z,100457.91
2018-10-04T13:56:38.046Z,100451.56
2018-10-04T13:59:06.012Z,100446.57
2018-10-04T14:01:33.625Z,100445.15
2018-10-04T14:04:01.309Z,100440.56
2018-10-04T14:06:29.142Z,100440.97
2018-10-04T14:08:57.006Z,100442.01
2018-10-04T14:11:24.632Z,100440.83
2018-10-04T14:13:52.324Z,100436.80
2018-10-04T14:16:20.000Z,100431.14
2018-10-04T14:18:47.679Z,100432.43
2018-10-04T14:21:15.486Z,100432.39
2018-10-04T14:23:43.100Z,100426.18
2018-10-04T14:26:10.788Z,100419.00
2018-10-04T14:28:38.440Z,100424.83
2018-10-04T14:31:06.106Z,100425.55
2018-10-04T14:33:33.735Z,100414.66
2018-10-04T14:36:01.506Z,100413.52
2018-10-04T14:38:29.344Z,100413.87
2018-10-04T14:40:57.320Z,100402.86
2018-10-04T14:43:25.959Z,100406.61
2018-10-04T14:45:53.839Z,100403.47
2018-10-04T14:48:21.462Z,100401.20
2018-10-04T14:50:49.146Z,100402.02
2018-10-04T14:53:16.748Z,100397.66
2018-10-04T14:55:44.421Z,100396.95
2018-10-04T14:58:12.264Z,100387.91
2018-10-04T15:00:39.848Z,100381.25
2018-10-04T15:03:07.564Z,100383.94
2018-10-04T15:05:35.319Z,100386.59
2018-10-04T15:08:02.995Z,100392.81
2018-10-04T15:10:30.648Z,100391.58
2018-10-04T15:12:58.290Z,100390.48
2018-10-04T15:15:25.839Z,100399.27
2018-10-04T15:17:53.411Z,100393.55
2018-10-04T15:20:21.079Z,100389.50
2018-10-04T15:22:48.708Z,100385.83
2018-10-04T15:25:16.440Z,100380.19
2018-10-04T15:27:44.258Z,100387.61
2018-10-04T15:30:11.993Z,100382.91
2018-10-04T15:32:39.651Z,100375.19
2018-10-04T15:35:07.285Z,100383.49
2018-10-04T15:37:34.958Z,100380.13
2018-10-04T15:40:02.537Z,100384.76
2018-10-04T15:42:30.127Z,100382.07
2018-10-04T15:44:57.764Z,100376.05
2018-10-04T15:47:25.512Z,100383.14
2018-10-04T15:49:53.224Z,100375.56
2018-10-04T15:52:21.333Z,100376.20
2018-10-04T15:54:49.140Z,100373.38
2018-10-04T15:57:16.868Z,100371.10
2018-10-04T15:59:44.805Z,100371.89
2018-10-04T16:02:12.504Z,100373.38
2018-10-04T16:04:40.087Z,100374.17
2018-10-04T16:07:07.929Z,100368.98
2018-10-04T16:09:35.653Z,100367.39
2018-10-04T16:12:03.300Z,100371.64
2018-10-04T16:14:30.892Z,100374.23
2018-10-04T16:16:58.445Z,100371.20
2018-10-04T16:19:26.042Z,100363.58
2018-10-04T16:21:53.550Z,100368.87
2018-10-04T16:24:21.151Z,100367.33
2018-10-04T16:26:48.762Z,100358.98
2018-10-04T16:29:16.289Z,100359.70
2018-10-04T16:31:43.972Z,100362.61
2018-10-04T16:34:11.601Z,100364.14
2018-10-04T16:36:39.639Z,100366.28
2018-10-04T16:39:07.662Z,100361.46
2018-10-04T16:41:35.382Z,100361.81
2018-10-04T16:44:02.949Z,100362.52
2018-10-04T16:46:30.513Z,100364.45
2018-10-04T16:48:58.108Z,100357.94
2018-10-04T16:51:25.783Z,100353.47
2018-10-04T16:53:53.428Z,100354.12
2018-10-04T16:56:21.334Z,100351.88
2018-10-04T16:58:49.790Z,100358.87
2018-10-04T17:01:17.466Z,100358.13
2018-10-04T17:03:45.152Z,100363.81
2018-10-04T17:06:12.874Z,100360.03
2018-10-04T17:08:40.483Z,100359.67
2018-10-04T17:11:08.372Z,100364.41
2018-10-04T17:13:36.269Z,100362.20
2018-10-04T17:16:04.113Z,100356.45
2018-10-04T17:18:31.835Z,100363.98
2018-10-04T17:20:59.582Z,100361.02
2018-10-04T17:23:27.118Z,100361.80
2018-10-04T17:25:54.689Z,100363.91
2018-10-04T17:28:22.217Z,100361.23
2018-10-04T17:30:49.758Z,100361.63
2018-10-04T17:33:17.371Z,100362.16
2018-10-04T17:35:47.991Z,100363.64
2018-10-04T17:38:15.554Z,100364.58
2018-10-04T17:40:43.081Z,100362.86
2018-10-04T17:43:10.688Z,100364.98
2018-10-04T17:45:38.226Z,100368.82
2018-10-04T17:48:05.814Z,100365.23
2018-10-04T17:50:33.332Z,100361.34
2018-10-04T17:53:00.874Z,100362.13
2018-10-04T17:55:28.429Z,100360.60
2018-10-04T17:57:56.023Z,100358.72
2018-10-04T18:00:24.769Z,100361.02
2018-10-04T18:02:54.392Z,100354.63
2018-10-04T18:05:21.939Z,100357.42
2018-10-04T18:07:49.636Z,100356.81
2018-10-04T18:10:17.180Z,100352.75
2018-10-04T18:12:44.763Z,100354.22
2018-10-04T18:15:12.338Z,100355.40
2018-10-04T18:17:39.921Z,100363.55
2018-10-04T18:20:07.501Z,100349.16
2018-10-04T18:22:35.084Z,100347.11
2018-10-04T18:25:03.673Z,100349.22
2018-10-04T18:27:31.238Z,100352.66
2018-10-04T18:29:58.849Z,100350.78
2018-10-04T18:32:26.525Z,100351.76
2018-10-04T18:34:54.077Z,100352.48
2018-10-04T18:37:21.601Z,100346.83
2018-10-04T18:39:49.160Z,100347.91
2018-10-04T18:42:16.692Z,100348.05
2018-10-04T18:44:44.261Z,100346.34
2018-10-04T18:47:11.803Z,100343.15
2018-10-04T18:49:39.398Z,100337.62
2018-10-04T18:52:06.977Z,100340.86
2018-10-04T18:54:34.564Z,100345.51
2018-10-04T18:57:02.112Z,100342.71
2018-10-04T18:59:29.694Z,100334.09
2018-10-04T19:01:57.255Z,100337.67
2018-10-04T19:04:24.850Z,100341.91
2018-10-04T19:06:53.848Z,100340.69
2018-10-04T19:09:21.807Z,100332.57
2018-10-04T19:11:51.592Z,100337.58
2018-10-04T19:14:19.146Z,100332.28
2018-10-04T19:16:46.728Z,100330.78
2018-10-04T19:19:14.383Z,100336.33
2018-10-04T19:21:41.892Z,100333.20
2018-10-04T19:24:09.448Z,100336.71
2018-10-04T19:26:37.072Z,100333.05
2018-10-04T19:29:04.622Z,100326.79
2018-10-04T19:31:32.444Z,100327.75
2018-10-04T19:33:59.986Z,100322.88
2018-10-04T19:36:27.539Z,100323.67
2018-10-04T19:38:55.127Z,100319.92
2018-10-04T19:41:22.665Z,100319.45
2018-10-04T19:43:50.241Z,100320.23
2018-10-04T19:46:17.779Z,100314.17
2018-10-04T19:48:53.210Z,100319.20
2018-10-04T19:51:20.769Z,100316.75
2018-10-04T19:53:48.344Z,100315.75
2018-10-04T19:56:15.869Z,100315.28
2018-10-04T19:58:43.466Z,100318.48
2018-10-04T20:01:14.529Z,100313.12
2018-10-04T20:03:42.221Z,100311.93
2018-10-04T20:06:10.680Z,100310.41
2018-10-04T20:08:38.265Z,100312.25
2018-10-04T20:11:05.814Z,100313.67
2018-10-04T20:13:33.397Z,100319.13
2018-10-04T20:16:00.932Z,100319.63
2018-10-04T20:18:28.612Z,100311.16
2018-10-04T20:20:56.161Z,100316.27
2018-10-04T20:23:23.689Z,100316.11
2018-10-04T20:25:51.243Z,100312.60
2018-10-04T20:28:18.877Z,100311.36
2018-10-04T20:30:47.402Z,100308.52
2018-10-04T20:33:14.992Z,100312.55
2018-10-04T20:35:42.665Z,100309.87
2018-10-04T20:38:10.412Z,100300.03
2018-10-04T20:40:37.980Z,100304.33
2018-10-04T20:43:05.571Z,100302.12
2018-10-04T20:45:33.126Z,100305.11
2018-10-04T20:48:00.896Z,100301.63
2018-10-04T20:50:28.485Z,100302.90
2018-10-04T20:52:56.081Z,100298.31
2018-10-04T20:55:23.608Z,100298.61
2018-10-04T20:57:51.230Z,100296.05
2018-10-04T21:00:18.782Z,100299.11
2018-10-04T21:02:46.538Z,100289.91
2018-10-04T21:05:14.099Z,100284.34
2018-10-04T21:07:41.803Z,100281.67
2018-10-04T21:10:09.348Z,100279.86
2018-10-04T21:12:36.985Z,100277.28
2018-10-04T21:15:04.511Z,100279.69
2018-10-04T21:17:32.101Z,100277.11
2018-10-04T21:19:59.641Z,100276.13
2018-10-04T21:22:28.424Z,100274.78
2018-10-04T21:24:55.945Z,100271.92
2018-10-04T21:27:23.518Z,100276.47
2018-10-04T21:29:51.091Z,100269.21
2018-10-04T21:32:18.637Z,100265.55
2018-10-04T21:34:48.448Z,100260.42
2018-10-04T21:37:15.994Z,100254.20
2018-10-04T21:39:43.536Z,100259.02
2018-10-04T21:42:11.195Z,100255.13
2018-10-04T21:44:38.787Z,100255.84
2018-10-04T21:47:06.327Z,100256.00
2018-10-04T21:49:33.907Z,100258.60
2018-10-04T21:52:01.527Z,100249.22
2018-10-04T21:54:29.130Z,100256.74
2018-10-04T21:56:56.736Z,100262.34
2018-10-04T21:59:24.286Z,100254.41
2018-10-04T22:01:51.816Z,100248.23
2018-10-04T22:04:19.388Z,100255.50
2018-10-04T22:06:47.957Z,100249.14
2018-10-04T22:09:15.523Z,100246.82
2018-10-04T22:11:43.101Z,100251.30
2018-10-04T22:14:10.617Z,100249.88
2018-10-04T22:16:38.237Z,100242.11
2018-10-04T22:19:05.800Z,100245.24
2018-10-04T22:21:33.375Z,100243.97
2018-10-04T22:24:00.939Z,100243.71
2018-10-04T22:26:28.519Z,100245.41
2018-10-04T22:28:57.099Z,100247.38
2018-10-04T22:31:24.663Z,100254.28
2018-10-04T22:33:53.246Z,100254.90
2018-10-04T22:36:21.212Z,100255.69
2018-10-04T22:38:48.768Z,100254.68
2018-10-04T22:41:16.387Z,100258.72
2018-10-04T22:43:43.948Z,100255.77
2018-10-04T22:46:11.522Z,100249.41
2018-10-04T22:48:39.048Z,100248.69
2018-10-04T22:51:06.633Z,100246.71
2018-10-04T22:53:34.145Z,100241.98
2018-10-04T22:56:01.711Z,100238.47
2018-10-04T22:58:29.250Z,100240.75
2018-10-04T23:00:56.867Z,100242.16
2018-10-04T23:03:24.387Z,100240.74
2018-10-04T23:05:52.199Z,100237.58
2018-10-04T23:08:19.837Z,100238.52
2018-10-04T23:10:47.657Z,100235.05
2018-10-04T23:13:15.232Z,100230.53
2018-10-04T23:15:42.782Z,100228.13
2018-10-04T23:18:10.411Z,100225.73
2018-10-04T23:20:37.939Z,100216.80
2018-10-04T23:23:05.475Z,100219.10
2018-10-04T23:25:33.046Z,100214.66
2018-10-04T23:28:00.600Z,100217.91
2018-10-04T23:30:28.269Z,100218.23
2018-10-04T23:32:55.797Z,100213.84
2018-10-04T23:35:23.371Z,100206.92
2018-10-04T23:37:50.907Z,100209.86
2018-10-04T23:40:18.472Z,100217.01
2018-10-04T23:42:46.039Z,100216.79
2018-10-04T23:45:13.592Z,100219.03
2018-10-04T23:47:42.271Z,100216.61
2018-10-04T23:50:09.857Z,100218.73
2018-10-04T23:52:37.461Z,100209.29
2018-10-04T23:55:04.999Z,100210.34
2018-10-04T23:57:33.618Z,100208.52
